createdAt,value
2018-04-15T07:59:07.716Z,15.60
2018-04-15T08:01:35.232Z,15.80
2018-04-15T08:04:02.736Z,15.90
2018-04-15T08:06:30.316Z,16.00
2018-04-15T08:08:58.587Z,15.80
2018-04-15T08:11:26.879Z,15.70
2018-04-15T08:13:55.163Z,15.30
2018-04-15T08:16:23.456Z,15.10
2018-04-15T08:18:50.959Z,15.10
2018-04-15T08:21:18.476Z,14.90
2018-04-15T08:23:46.742Z,14.90
2018-04-15T08:26:15.234Z,15.00
2018-04-15T08:28:42.775Z,15.20
2018-04-15T08:31:12.004Z,15.70
2018-04-15T08:33:39.885Z,15.70
2018-04-15T08:36:07.374Z,16.10
2018-04-15T08:38:35.760Z,16.30
2018-04-15T08:41:03.257Z,16.30
2018-04-15T08:43:30.772Z,16.30
2018-04-15T08:45:58.284Z,16.40
2018-04-15T08:48:25.800Z,16.30
2018-04-15T08:50:54.137Z,16.50
2018-04-15T08:53:21.667Z,16.40
2018-04-15T08:55:49.482Z,16.20
2018-04-15T08:58:17.028Z,16.40
2018-04-15T09:00:45.681Z,16.70
2018-04-15T09:03:13.967Z,17.20
2018-04-15T09:05:41.498Z,17.20
2018-04-15T09:08:09.894Z,17.30
2018-04-15T09:10:37.396Z,17.20
2018-04-15T09:13:07.593Z,17.40
2018-04-15T09:15:35.086Z,17.70
2018-04-15T09:18:03.383Z,17.60
2018-04-15T09:20:31.416Z,17.60
2018-04-15T09:22:59.789Z,17.70
2018-04-15T09:25:27.336Z,17.80
2018-04-15T09:27:55.832Z,17.90
2018-04-15T09:30:23.896Z,17.90
2018-04-15T09:32:52.047Z,17.80
2018-04-15T09:35:20.609Z,17.30
2018-04-15T09:37:49.717Z,17.30
2018-04-15T09:40:18.015Z,17.20
2018-04-15T09:42:47.192Z,17.20
2018-04-15T09:45:14.719Z,17.20
2018-04-15T09:47:42.472Z,17.20
2018-04-15T09:50:11.597Z,17.50
2018-04-15T09:52:41.110Z,17.50
2018-04-15T09:55:08.633Z,17.50
2018-04-15T09:57:37.800Z,17.60
2018-04-15T10:00:06.112Z,18.00
2018-04-15T10:02:34.530Z,18.10
2018-04-15T10:05:03.003Z,18.20
2018-04-15T10:07:30.921Z,18.10
2018-04-15T10:09:58.466Z,17.80
2018-04-15T10:12:26.832Z,18.10
2018-04-15T10:14:55.464Z,18.50
2018-04-15T10:17:23.818Z,18.50
2018-04-15T10:19:51.349Z,18.60
2018-04-15T10:22:18.845Z,18.90
2018-04-15T10:24:47.814Z,19.20
2018-04-15T10:27:15.895Z,19.10
2018-04-15T10:29:46.057Z,19.20
2018-04-15T10:32:13.552Z,19.30
2018-04-15T10:34:41.120Z,19.40
2018-04-15T10:37:09.676Z,19.50
2018-04-15T10:39:37.233Z,19.70
2018-04-15T10:42:04.737Z,19.80
2018-04-15T10:44:33.024Z,19.90
2018-04-15T10:47:01.132Z,19.90
2018-04-15T10:49:29.649Z,19.90
2018-04-15T10:51:57.151Z,19.90
2018-04-15T10:54:25.666Z,20.10
2018-04-15T10:56:53.177Z,20.30
2018-04-15T10:59:21.445Z,20.70
2018-04-15T11:01:50.714Z,20.90
2018-04-15T11:04:18.216Z,20.90
2018-04-15T11:06:46.504Z,21.20
2018-04-15T11:09:14.009Z,21.20
2018-04-15T11:11:42.325Z,21.10
2018-04-15T11:14:10.685Z,21.00
2018-04-15T11:16:38.170Z,21.00
2018-04-15T11:19:06.430Z,20.90
2018-04-15T11:21:33.951Z,20.90
2018-04-15T11:24:01.446Z,20.90
2018-04-15T11:26:29.188Z,20.90
2018-04-15T11:28:56.726Z,20.90
2018-04-15T11:31:26.101Z,21.40
2018-04-15T11:33:53.748Z,21.40
2018-04-15T11:36:21.259Z,21.40
2018-04-15T11:38:51.519Z,21.10
2018-04-15T11:41:19.036Z,21.10
2018-04-15T11:43:47.406Z,21.00
2018-04-15T11:46:14.931Z,21.00
2018-04-15T11:48:43.821Z,20.80
2018-04-15T11:51:12.388Z,20.90
2018-04-15T11:53:43.562Z,21.00
2018-04-15T11:56:12.653Z,21.10
2018-04-15T11:58:40.924Z,21.10
2018-04-15T12:01:08.425Z,21.10
2018-04-15T12:03:35.947Z,21.00
2018-04-15T12:06:05.532Z,21.20
2018-04-15T12:08:33.056Z,21.20
2018-04-15T12:11:00.895Z,21.00
2018-04-15T12:13:29.171Z,21.00
2018-04-15T12:15:56.697Z,21.00
2018-04-15T12:18:25.135Z,21.00
2018-04-15T12:20:53.294Z,21.00
2018-04-15T12:23:20.812Z,21.20
2018-04-15T12:25:48.346Z,21.40
2018-04-15T12:28:15.861Z,21.40
2018-04-15T12:30:44.137Z,21.40
2018-04-15T12:33:14.123Z,21.60
2018-04-15T12:35:41.644Z,21.60
2018-04-15T12:38:09.933Z,21.80
2018-04-15T12:40:40.322Z,22.10
2018-04-15T12:43:07.945Z,22.30
2018-04-15T12:45:36.363Z,22.30
2018-04-15T12:48:03.876Z,22.40
2018-04-15T12:50:32.227Z,23.00
2018-04-15T12:53:00.389Z,23.20
2018-04-15T12:55:28.885Z,23.70
2018-04-15T12:57:56.401Z,24.20
2018-04-15T13:00:23.892Z,24.60
2018-04-15T13:02:51.409Z,25.00
2018-04-15T13:05:19.752Z,25.40
2018-04-15T13:07:47.606Z,25.90
2018-04-15T13:10:15.110Z,26.00
2018-04-15T13:12:43.424Z,25.90
2018-04-15T13:15:12.248Z,25.80
2018-04-15T13:17:39.778Z,25.80
2018-04-15T13:20:08.916Z,26.00
2018-04-15T13:22:36.416Z,26.40
2018-04-15T13:25:04.890Z,26.40
2018-04-15T13:27:32.387Z,26.50
2018-04-15T13:29:59.913Z,26.70
2018-04-15T13:32:27.980Z,26.80
2018-04-15T13:34:56.530Z,26.90
2018-04-15T13:37:24.036Z,27.20
2018-04-15T13:39:52.328Z,27.40
2018-04-15T13:42:19.868Z,27.40
2018-04-15T13:44:47.377Z,27.70
2018-04-15T13:47:14.872Z,27.90
2018-04-15T13:49:42.388Z,28.00
2018-04-15T13:52:09.880Z,28.00
2018-04-15T13:54:37.393Z,28.00
2018-04-15T13:57:04.901Z,27.90
2018-04-15T13:59:32.413Z,27.90
2018-04-15T14:01:59.901Z,27.80
2018-04-15T14:04:27.459Z,27.90
2018-04-15T14:06:54.960Z,28.00
2018-04-15T14:09:23.261Z,28.20
2018-04-15T14:11:51.650Z,28.10
2018-04-15T14:14:19.120Z,28.10
2018-04-15T14:16:46.620Z,27.80
2018-04-15T14:19:32.665Z,27.40
2018-04-15T14:22:01.036Z,27.20
2018-04-15T14:24:28.568Z,26.90
2018-04-15T14:26:56.073Z,26.80
2018-04-15T14:29:23.596Z,27.00
2018-04-15T14:31:51.859Z,27.50
2018-04-15T14:34:19.795Z,27.40
2018-04-15T14:36:49.136Z,27.20
2018-04-15T14:39:17.412Z,26.90
2018-04-15T14:41:44.972Z,26.90
2018-04-15T14:44:12.519Z,26.80
2018-04-15T14:46:40.312Z,26.30
2018-04-15T14:49:08.607Z,26.20
2018-04-15T14:51:36.758Z,25.80
2018-04-15T14:54:05.428Z,25.60
2018-04-15T14:56:33.553Z,25.20
2018-04-15T14:59:01.048Z,25.20
2018-04-15T15:01:28.569Z,25.10
2018-04-15T15:03:56.061Z,25.20
2018-04-15T15:06:23.573Z,25.20
2018-04-15T15:08:51.089Z,25.20
2018-04-15T15:11:19.439Z,25.40
2018-04-15T15:13:46.952Z,25.50
2018-04-15T15:16:14.460Z,25.60
2018-04-15T15:21:40.045Z,25.80
2018-04-15T15:24:08.960Z,26.00
2018-04-15T15:26:36.494Z,26.10
2018-04-15T15:29:04.027Z,26.60
2018-04-15T15:31:32.728Z,26.90
2018-04-15T15:34:00.736Z,27.10
2018-04-15T15:36:28.256Z,27.30
2018-04-15T15:38:56.191Z,27.20
2018-04-15T15:41:23.954Z,27.10
2018-04-15T15:43:51.830Z,26.90
2018-04-15T15:46:19.668Z,26.60
2018-04-15T15:48:48.103Z,26.30
2018-04-15T15:51:15.622Z,25.80
2018-04-15T15:53:43.191Z,25.80
2018-04-15T15:56:10.943Z,25.60
2018-04-15T15:58:38.476Z,25.40
2018-04-15T16:01:05.992Z,25.10
2018-04-15T16:03:33.487Z,24.90
2018-04-15T16:06:00.991Z,24.50
2018-04-15T16:08:28.521Z,24.20
2018-04-15T16:10:56.788Z,23.90
2018-04-15T16:13:24.311Z,23.90
2018-04-15T16:15:51.810Z,23.70
2018-04-15T16:18:19.323Z,23.70
2018-04-15T16:20:47.827Z,23.70
2018-04-15T16:23:15.349Z,23.70
2018-04-15T16:25:42.857Z,23.60
2018-04-15T16:28:10.368Z,23.60
2018-04-15T16:30:37.868Z,23.60
2018-04-15T16:33:06.265Z,23.50
2018-04-15T16:35:35.107Z,23.50
2018-04-15T16:38:02.657Z,23.60
2018-04-15T16:40:30.163Z,23.60
2018-04-15T16:42:59.273Z,23.50
2018-04-15T16:45:26.775Z,23.40
2018-04-15T16:47:55.245Z,23.30
2018-04-15T16:50:22.764Z,23.10
2018-04-15T16:52:50.300Z,23.10
2018-04-15T16:55:18.441Z,23.00
2018-04-15T16:57:45.943Z,23.00
2018-04-15T17:00:13.507Z,22.80
2018-04-15T17:02:41.749Z,22.50
2018-04-15T17:05:09.252Z,22.50
2018-04-15T17:07:37.374Z,22.50
2018-04-15T17:10:04.861Z,22.30
2018-04-15T17:12:32.386Z,22.20
2018-04-15T17:15:01.340Z,22.00
2018-04-15T17:17:29.574Z,21.90
2018-04-15T17:19:57.084Z,21.90
2018-04-15T17:22:24.619Z,21.80
2018-04-15T17:24:52.136Z,21.70
2018-04-15T17:27:19.646Z,21.70
2018-04-15T17:29:47.168Z,21.60
2018-04-15T17:32:15.690Z,21.30
2018-04-15T17:34:44.036Z,21.40
2018-04-15T17:37:12.388Z,21.40
2018-04-15T17:39:41.432Z,21.30
2018-04-15T17:42:11.151Z,21.30
2018-04-15T17:44:39.385Z,21.20
2018-04-15T17:47:07.211Z,21.20
2018-04-15T17:49:34.745Z,21.10
2018-04-15T17:52:02.253Z,21.20
2018-04-15T17:54:30.545Z,21.10
2018-04-15T17:56:58.660Z,21.10
2018-04-15T17:59:26.177Z,21.10
2018-04-15T18:01:53.672Z,21.00
2018-04-15T18:04:21.413Z,20.90
2018-04-15T18:06:48.915Z,20.90
2018-04-15T18:09:16.869Z,20.90
2018-04-15T18:11:45.316Z,21.00
2018-04-15T18:14:12.832Z,21.00
2018-04-15T18:16:41.236Z,20.90
2018-04-15T19:44:58.580Z,20.80
2018-04-15T19:47:26.101Z,18.70
2018-04-15T19:49:54.575Z,18.70
2018-04-15T19:52:22.083Z,18.70
2018-04-15T19:54:50.367Z,18.70
2018-04-15T19:57:18.792Z,18.70
2018-04-15T19:59:46.297Z,18.70
2018-04-15T20:02:13.809Z,18.80
2018-04-15T20:04:41.377Z,18.80
2018-04-15T20:07:08.903Z,18.80
2018-04-15T20:09:37.013Z,18.80
2018-04-15T20:12:04.548Z,18.80
2018-04-15T20:14:32.932Z,18.80
2018-04-15T20:17:01.406Z,18.60
2018-04-15T20:19:28.890Z,18.60
2018-04-15T20:21:58.517Z,18.50
2018-04-15T20:24:27.564Z,18.40
2018-04-15T20:26:56.036Z,18.40
2018-04-15T20:29:23.611Z,18.40
2018-04-15T20:31:51.932Z,18.40
2018-04-15T20:34:19.445Z,18.40
2018-04-15T20:36:47.795Z,18.30
2018-04-15T20:39:17.041Z,18.30
2018-04-15T20:41:45.399Z,18.30
2018-04-15T20:44:12.936Z,18.30
2018-04-15T20:46:40.484Z,18.20
2018-04-15T20:49:10.498Z,18.20
2018-04-15T20:51:38.761Z,18.20
2018-04-15T20:54:06.288Z,18.20
2018-04-15T20:56:33.830Z,18.20
2018-04-15T20:59:01.794Z,18.10
2018-04-15T21:01:30.028Z,18.10
2018-04-15T21:03:57.814Z,18.10
2018-04-15T21:06:26.306Z,18.00
2018-04-15T21:08:53.845Z,18.00
2018-04-15T21:11:22.995Z,18.00
2018-04-15T21:13:52.214Z,18.00
2018-04-15T21:16:21.641Z,18.00
2018-04-15T21:18:50.191Z,18.00
2018-04-15T21:21:17.681Z,18.00
2018-04-15T21:23:45.211Z,17.90
2018-04-15T21:26:13.606Z,17.90
2018-04-15T21:28:41.125Z,17.90
2018-04-15T21:31:09.431Z,17.90
2018-04-15T21:33:37.559Z,18.00
2018-04-15T21:36:07.211Z,18.00
2018-04-15T21:38:35.314Z,18.00
2018-04-15T21:41:07.983Z,18.00
2018-04-15T21:43:36.274Z,18.00
2018-04-15T21:46:04.629Z,17.90
2018-04-15T21:48:33.060Z,17.90
2018-04-15T21:51:01.581Z,18.00
2018-04-15T21:53:30.041Z,17.90
2018-04-15T21:55:58.132Z,18.00
2018-04-15T21:58:25.668Z,18.00
2018-04-15T22:00:53.222Z,17.90
2018-04-15T22:03:21.680Z,17.80
2018-04-15T22:05:49.197Z,17.70
2018-04-15T22:08:17.504Z,17.70
2018-04-15T22:10:47.157Z,17.60
2018-04-15T22:13:15.458Z,17.70
2018-04-15T22:15:44.668Z,17.70
2018-04-15T22:18:12.171Z,17.70
2018-04-15T22:20:39.732Z,17.70
2018-04-15T22:23:08.527Z,17.60
2018-04-15T22:25:36.108Z,17.60
2018-04-15T22:28:03.624Z,17.50
2018-04-15T22:30:32.129Z,17.50
2018-04-15T22:33:01.237Z,17.50
2018-04-15T22:35:30.147Z,17.60
2018-04-15T22:37:57.644Z,17.60
2018-04-15T22:40:25.981Z,17.70
2018-04-15T22:42:54.352Z,17.80
2018-04-15T22:45:21.870Z,17.80
2018-04-15T22:47:55.669Z,17.90
2018-04-15T22:50:23.184Z,18.00
2018-04-15T22:52:50.846Z,18.00
2018-04-15T22:55:18.372Z,18.10
2018-04-15T22:57:46.686Z,18.00
2018-04-15T23:00:14.201Z,17.90
2018-04-15T23:02:41.707Z,17.90
2018-04-15T23:05:09.219Z,18.00
2018-04-15T23:07:36.707Z,18.00
2018-04-15T23:10:04.955Z,18.10
2018-04-15T23:12:32.464Z,18.20
2018-04-15T23:14:59.994Z,18.20
2018-04-15T23:17:27.546Z,18.20
2018-04-15T23:19:55.082Z,18.10
2018-04-15T23:22:22.567Z,18.20
2018-04-15T23:24:50.850Z,18.00
2018-04-15T23:27:19.111Z,18.00
2018-04-15T23:29:47.402Z,18.10
2018-04-15T23:32:16.548Z,18.20
2018-04-15T23:34:44.090Z,18.20
2018-04-15T23:37:11.584Z,18.20
2018-04-15T23:39:39.332Z,18.10
2018-04-15T23:42:06.894Z,17.90
2018-04-15T23:44:35.023Z,18.00
2018-04-15T23:47:03.336Z,18.00
2018-04-15T23:49:30.845Z,18.00
2018-04-15T23:51:58.712Z,18.00
2018-04-15T23:54:26.854Z,17.90
2018-04-15T23:56:56.320Z,18.00
2018-04-15T23:59:25.702Z,18.10
